createdAt,value
2018-12-31T00:01:21.448Z,14.50
2018-12-31T00:03:50.439Z,12.23
2018-12-31T00:06:19.382Z,13.27
2018-12-31T00:08:48.309Z,14.17
2018-12-31T00:11:17.257Z,12.90
2018-12-31T00:13:46.163Z,12.03
2018-12-31T00:16:14.987Z,12.43
2018-12-31T00:18:44.001Z,11.97
2018-12-31T00:21:12.886Z,12.77
2018-12-31T00:23:41.725Z,12.10
2018-12-31T00:26:10.588Z,12.00
2018-12-31T00:28:39.433Z,12.20
2018-12-31T00:31:08.398Z,12.23
2018-12-31T00:33:37.372Z,12.63
2018-12-31T00:36:06.213Z,11.50
2018-12-31T00:38:35.198Z,12.07
2018-12-31T00:41:04.258Z,13.60
2018-12-31T00:43:33.161Z,11.83
2018-12-31T00:46:02.359Z,12.00
2018-12-31T00:48:31.273Z,11.77
2018-12-31T00:51:00.179Z,12.33
2018-12-31T00:53:28.991Z,12.00
2018-12-31T00:55:57.977Z,12.60
2018-12-31T00:58:26.990Z,12.50
2018-12-31T01:00:55.880Z,13.27
2018-12-31T01:03:24.717Z,14.20
2018-12-31T01:05:53.554Z,15.83
2018-12-31T01:08:22.442Z,15.17
2018-12-31T01:10:51.262Z,14.43
2018-12-31T01:13:20.170Z,14.53
2018-12-31T01:15:49.019Z,15.90
2018-12-31T01:18:17.941Z,14.10
2018-12-31T01:20:46.846Z,14.03
2018-12-31T01:23:17.001Z,13.73
2018-12-31T01:25:45.948Z,13.87
2018-12-31T01:28:14.765Z,13.17
2018-12-31T01:30:43.693Z,13.27
2018-12-31T01:33:12.545Z,12.47
2018-12-31T01:35:41.477Z,12.13
2018-12-31T01:38:10.329Z,12.80
2018-12-31T01:40:39.472Z,12.27
2018-12-31T01:43:08.475Z,12.40
2018-12-31T01:45:37.347Z,12.47
2018-12-31T01:48:06.274Z,13.20
2018-12-31T01:50:35.104Z,11.93
2018-12-31T01:53:04.016Z,13.47
2018-12-31T01:55:32.978Z,12.43
2018-12-31T01:58:02.171Z,13.37
2018-12-31T02:00:31.724Z,12.30
2018-12-31T02:03:00.661Z,12.10
2018-12-31T02:05:29.614Z,11.30
2018-12-31T02:07:58.518Z,10.60
2018-12-31T02:10:27.339Z,11.27
2018-12-31T02:12:56.279Z,9.77
2018-12-31T02:15:25.299Z,9.67
2018-12-31T02:17:54.241Z,10.30
2018-12-31T02:20:23.161Z,10.17
2018-12-31T02:22:52.252Z,10.30
2018-12-31T02:25:21.238Z,9.93
2018-12-31T02:27:50.019Z,9.17
2018-12-31T02:30:19.175Z,9.23
2018-12-31T02:32:48.052Z,8.93
2018-12-31T02:35:17.248Z,9.07
2018-12-31T02:37:46.049Z,7.60
2018-12-31T02:40:14.864Z,7.63
2018-12-31T02:42:43.800Z,8.53
2018-12-31T02:45:12.627Z,8.47
2018-12-31T02:47:41.455Z,7.20
2018-12-31T02:50:10.450Z,7.67
2018-12-31T02:52:39.621Z,7.93
2018-12-31T02:55:08.697Z,7.07
2018-12-31T02:57:37.613Z,8.40
2018-12-31T03:00:06.733Z,8.47
2018-12-31T03:02:35.778Z,9.67
2018-12-31T03:05:04.934Z,9.70
2018-12-31T03:07:33.868Z,9.40
2018-12-31T03:10:02.831Z,10.00
2018-12-31T03:12:31.645Z,9.47
2018-12-31T03:15:00.782Z,9.60
2018-12-31T03:17:29.610Z,9.40
2018-12-31T03:19:58.599Z,9.50
2018-12-31T03:22:27.470Z,8.90
2018-12-31T03:24:56.586Z,8.83
2018-12-31T03:27:25.557Z,8.63
2018-12-31T03:29:54.505Z,9.30
2018-12-31T03:32:23.644Z,9.43
2018-12-31T03:34:52.537Z,9.03
2018-12-31T03:37:21.567Z,9.03
2018-12-31T03:39:50.465Z,9.80
2018-12-31T03:42:19.362Z,9.50
2018-12-31T03:44:48.189Z,8.90
2018-12-31T03:47:17.323Z,9.27
2018-12-31T03:49:46.252Z,9.50
2018-12-31T03:52:15.173Z,8.83
2018-12-31T03:54:44.204Z,8.87
2018-12-31T03:57:13.197Z,8.80
2018-12-31T03:59:42.157Z,8.70
2018-12-31T04:02:11.081Z,8.70
2018-12-31T04:04:40.139Z,8.30
2018-12-31T04:07:09.181Z,8.80
2018-12-31T04:09:38.149Z,8.77
2018-12-31T04:12:07.140Z,7.23
2018-12-31T04:14:36.050Z,6.90
2018-12-31T04:17:04.990Z,7.13
2018-12-31T04:19:34.015Z,7.40
2018-12-31T04:22:02.850Z,6.70
2018-12-31T04:24:31.689Z,7.70
2018-12-31T04:27:00.501Z,7.70
2018-12-31T04:29:29.459Z,7.23
2018-12-31T04:31:58.415Z,6.97
2018-12-31T04:34:27.337Z,7.03
2018-12-31T04:36:56.357Z,7.20
2018-12-31T04:39:25.593Z,7.83
2018-12-31T04:41:54.634Z,7.93
2018-12-31T04:44:23.480Z,7.83
2018-12-31T04:46:52.458Z,8.47
2018-12-31T04:49:21.388Z,7.57
2018-12-31T04:51:50.298Z,8.27
2018-12-31T04:54:19.157Z,8.60
2018-12-31T04:56:48.054Z,8.33
2018-12-31T04:59:16.996Z,8.60
2018-12-31T05:01:45.851Z,8.53
2018-12-31T05:04:14.683Z,8.10
2018-12-31T05:06:43.629Z,7.80
2018-12-31T05:09:12.466Z,8.07
2018-12-31T05:11:41.335Z,8.00
2018-12-31T05:14:10.179Z,8.73
2018-12-31T05:16:39.026Z,10.00
2018-12-31T05:19:07.896Z,9.67
2018-12-31T05:21:36.786Z,10.90
2018-12-31T05:24:05.742Z,10.40
2018-12-31T05:26:34.590Z,10.63
2018-12-31T05:29:03.465Z,12.13
2018-12-31T05:31:32.313Z,12.27
2018-12-31T05:34:01.277Z,13.03
2018-12-31T05:36:30.219Z,13.23
2018-12-31T05:38:59.085Z,13.83
2018-12-31T05:41:28.096Z,14.53
2018-12-31T05:43:57.325Z,13.80
2018-12-31T05:46:26.310Z,15.37
2018-12-31T05:48:55.144Z,15.40
2018-12-31T05:51:24.016Z,16.13
2018-12-31T05:53:53.067Z,15.03
2018-12-31T05:56:21.973Z,17.53
2018-12-31T05:58:50.910Z,18.97
2018-12-31T06:01:19.933Z,16.70
2018-12-31T06:03:48.881Z,15.90
2018-12-31T06:06:17.718Z,15.17
2018-12-31T06:08:46.574Z,17.90
2018-12-31T06:11:15.466Z,16.23
2018-12-31T06:13:44.290Z,15.60
2018-12-31T06:16:13.110Z,16.03
2018-12-31T06:18:41.951Z,15.10
2018-12-31T06:21:10.969Z,15.80
2018-12-31T06:23:39.818Z,15.87
2018-12-31T06:26:08.877Z,15.77
2018-12-31T06:28:37.733Z,16.10
2018-12-31T06:31:06.664Z,16.77
2018-12-31T06:33:35.506Z,16.93
2018-12-31T06:36:04.475Z,16.30
2018-12-31T06:38:33.325Z,15.33
2018-12-31T06:41:02.262Z,15.13
2018-12-31T06:43:31.294Z,16.23
2018-12-31T06:46:00.234Z,15.50
2018-12-31T06:48:29.308Z,14.77
2018-12-31T06:50:58.345Z,14.40
2018-12-31T06:53:27.193Z,15.33
2018-12-31T06:55:56.111Z,16.20
2018-12-31T06:58:25.502Z,15.40
2018-12-31T07:00:54.445Z,15.13
2018-12-31T07:03:23.538Z,15.73
2018-12-31T07:05:52.401Z,15.77
2018-12-31T07:08:21.287Z,15.27
2018-12-31T07:10:50.166Z,14.00
2018-12-31T07:13:19.033Z,14.33
2018-12-31T07:15:47.962Z,15.60
2018-12-31T07:18:18.629Z,15.93
2018-12-31T07:20:47.559Z,15.50
2018-12-31T07:23:16.397Z,16.33
2018-12-31T07:25:45.307Z,15.50
2018-12-31T07:28:14.131Z,16.90
2018-12-31T07:30:43.031Z,17.70
2018-12-31T07:33:11.923Z,19.80
2018-12-31T07:35:40.847Z,19.20
2018-12-31T07:38:09.723Z,17.97
2018-12-31T07:40:38.758Z,20.00
2018-12-31T07:43:07.663Z,19.90
2018-12-31T07:45:36.516Z,20.07
2018-12-31T07:48:05.418Z,20.27
2018-12-31T07:50:34.292Z,19.50
2018-12-31T07:53:03.214Z,19.37
2018-12-31T07:55:32.056Z,20.60
2018-12-31T07:58:00.969Z,19.87
2018-12-31T08:00:29.995Z,21.40
2018-12-31T08:02:58.918Z,21.33
2018-12-31T08:05:27.768Z,20.57
2018-12-31T08:07:56.594Z,22.00
2018-12-31T08:10:25.530Z,21.77
2018-12-31T08:12:54.449Z,22.77
2018-12-31T08:15:23.686Z,23.70
2018-12-31T08:17:52.611Z,22.57
2018-12-31T08:20:21.446Z,23.63
2018-12-31T08:22:50.330Z,24.87
2018-12-31T08:25:19.197Z,25.97
2018-12-31T08:27:48.074Z,24.83
2018-12-31T08:30:18.828Z,24.90
2018-12-31T08:32:47.681Z,25.47
2018-12-31T08:35:16.743Z,24.60
2018-12-31T08:37:45.639Z,25.97
2018-12-31T08:40:14.607Z,25.13
2018-12-31T08:42:43.666Z,24.40
2018-12-31T08:45:12.618Z,24.33
2018-12-31T08:47:41.491Z,24.90
2018-12-31T08:50:10.443Z,24.53
2018-12-31T08:52:39.568Z,25.57
2018-12-31T08:55:08.605Z,24.80
2018-12-31T08:57:37.583Z,25.67
2018-12-31T09:00:06.997Z,25.87
2018-12-31T09:02:35.931Z,27.07
2018-12-31T09:05:05.078Z,26.67
2018-12-31T09:07:34.006Z,25.70
2018-12-31T09:10:03.118Z,27.83
2018-12-31T09:12:31.942Z,28.33
2018-12-31T09:15:01.153Z,27.30
2018-12-31T09:17:30.126Z,28.27
2018-12-31T09:19:59.020Z,26.83
2018-12-31T09:22:28.008Z,27.37
2018-12-31T09:24:57.132Z,27.67
2018-12-31T09:27:26.027Z,29.13
2018-12-31T09:29:54.955Z,28.17
2018-12-31T09:32:24.041Z,28.63
2018-12-31T09:34:53.183Z,28.47
2018-12-31T09:37:22.237Z,29.07
2018-12-31T09:39:51.512Z,29.70
2018-12-31T09:42:20.538Z,29.77
2018-12-31T09:44:49.453Z,29.90
2018-12-31T09:47:18.613Z,28.50
2018-12-31T09:49:47.867Z,29.10
2018-12-31T09:52:16.883Z,28.67
2018-12-31T09:54:45.916Z,29.17
2018-12-31T09:57:14.864Z,29.43
2018-12-31T09:59:43.931Z,29.57
2018-12-31T10:02:13.119Z,29.40
2018-12-31T10:04:41.975Z,31.83
2018-12-31T10:07:11.058Z,32.40
2018-12-31T10:09:40.185Z,32.53
2018-12-31T10:12:09.111Z,32.60
2018-12-31T10:14:38.306Z,33.13
2018-12-31T10:17:07.303Z,33.37
2018-12-31T10:19:36.301Z,34.33
2018-12-31T10:22:05.159Z,33.10
2018-12-31T10:24:34.014Z,32.67
2018-12-31T10:27:03.547Z,33.10
2018-12-31T10:29:36.245Z,34.37
2018-12-31T10:32:03.067Z,33.97
2018-12-31T10:34:32.091Z,33.37
2018-12-31T10:37:01.039Z,34.43
2018-12-31T10:39:29.941Z,32.43
2018-12-31T10:41:58.900Z,34.83
2018-12-31T10:44:27.963Z,33.00
2018-12-31T10:46:56.875Z,32.93
2018-12-31T10:49:25.838Z,32.30
2018-12-31T10:51:55.389Z,33.73
2018-12-31T10:54:24.681Z,33.23
2018-12-31T10:56:53.766Z,32.83
2018-12-31T10:59:22.918Z,31.57
2018-12-31T11:01:52.187Z,32.13
2018-12-31T11:04:21.555Z,33.13
2018-12-31T11:06:50.589Z,32.73
2018-12-31T11:09:19.799Z,33.20
2018-12-31T11:11:49.105Z,31.17
2018-12-31T11:14:18.123Z,31.23
2018-12-31T11:16:47.116Z,33.17
2018-12-31T11:19:16.142Z,31.23
2018-12-31T11:21:45.274Z,33.53
2018-12-31T11:24:14.246Z,31.90
2018-12-31T11:26:43.248Z,31.47
2018-12-31T11:29:12.270Z,32.77
2018-12-31T11:31:41.466Z,32.03
2018-12-31T11:34:10.353Z,31.10
2018-12-31T11:36:39.560Z,30.03
2018-12-31T11:39:08.644Z,31.77
2018-12-31T11:41:37.581Z,30.80
2018-12-31T11:44:06.649Z,30.33
2018-12-31T11:46:35.578Z,31.10
2018-12-31T11:49:04.642Z,32.53
2018-12-31T11:51:33.974Z,31.80
2018-12-31T11:54:02.873Z,33.60
2018-12-31T11:56:31.697Z,33.23
2018-12-31T11:59:00.679Z,42.33
2018-12-31T12:01:29.805Z,31.03
2018-12-31T12:03:58.657Z,30.13
2018-12-31T12:06:27.551Z,30.93
2018-12-31T12:08:56.431Z,31.47
2018-12-31T12:11:25.425Z,31.10
2018-12-31T12:13:54.369Z,29.87
2018-12-31T12:16:23.308Z,29.33
2018-12-31T12:18:52.379Z,28.23
2018-12-31T12:21:21.602Z,30.97
2018-12-31T12:23:50.671Z,29.70
2018-12-31T12:26:19.538Z,29.30
2018-12-31T12:28:48.680Z,28.57
2018-12-31T12:31:17.987Z,30.60
2018-12-31T12:33:47.265Z,30.83
2018-12-31T12:36:16.209Z,30.27
2018-12-31T12:38:45.219Z,32.27
2018-12-31T12:41:14.034Z,31.70
2018-12-31T12:43:42.977Z,31.17
2018-12-31T12:46:12.164Z,29.63
2018-12-31T12:48:41.460Z,29.57
2018-12-31T12:51:10.478Z,29.23
2018-12-31T12:53:39.494Z,28.77
2018-12-31T12:56:08.412Z,31.27
2018-12-31T12:58:37.844Z,28.80
2018-12-31T13:01:06.853Z,30.83
2018-12-31T13:03:35.784Z,31.23
2018-12-31T13:06:04.716Z,30.57
2018-12-31T13:08:33.790Z,30.13
2018-12-31T13:11:03.282Z,29.33
2018-12-31T13:13:32.159Z,28.40
2018-12-31T13:16:01.202Z,28.30
2018-12-31T13:18:30.339Z,28.97
2018-12-31T13:20:59.302Z,28.73
2018-12-31T13:23:28.420Z,29.27
2018-12-31T13:25:57.703Z,31.17
2018-12-31T13:28:27.138Z,31.27
2018-12-31T13:30:56.140Z,28.87
2018-12-31T13:33:25.193Z,29.10
2018-12-31T13:35:54.014Z,29.03
2018-12-31T13:38:22.929Z,28.50
2018-12-31T13:40:51.962Z,28.83
2018-12-31T13:43:20.834Z,29.43
2018-12-31T13:45:49.715Z,28.03
2018-12-31T13:48:18.828Z,28.43
2018-12-31T13:50:47.705Z,27.33
2018-12-31T13:53:16.605Z,29.13
2018-12-31T13:55:45.674Z,29.67
2018-12-31T13:58:14.497Z,27.80
2018-12-31T14:00:43.520Z,29.00
2018-12-31T14:03:17.043Z,28.17
2018-12-31T14:05:43.098Z,30.73
2018-12-31T14:08:11.914Z,29.43
2018-12-31T14:10:41.006Z,26.77
2018-12-31T14:13:09.816Z,28.70
2018-12-31T14:15:38.688Z,31.67
2018-12-31T14:18:07.522Z,29.30
2018-12-31T14:20:36.420Z,30.50
2018-12-31T14:23:05.446Z,28.10
2018-12-31T14:25:34.293Z,28.70
2018-12-31T14:28:05.049Z,29.40
2018-12-31T14:30:34.035Z,27.33
2018-12-31T14:33:03.100Z,29.20
2018-12-31T14:35:32.062Z,29.23
2018-12-31T14:38:01.154Z,29.30
2018-12-31T14:40:30.109Z,29.10
2018-12-31T14:42:59.148Z,30.27
2018-12-31T14:45:28.133Z,32.63
2018-12-31T14:47:56.974Z,33.80
2018-12-31T14:50:25.865Z,33.07
2018-12-31T14:52:54.993Z,37.57
2018-12-31T14:55:23.979Z,30.97
2018-12-31T14:57:53.022Z,28.20
2018-12-31T15:00:22.011Z,30.67
2018-12-31T15:02:51.116Z,31.73
2018-12-31T15:05:19.967Z,32.10
2018-12-31T15:07:48.794Z,34.30
2018-12-31T15:10:17.847Z,33.20
2018-12-31T15:12:46.983Z,32.90
2018-12-31T15:15:15.965Z,31.83
2018-12-31T15:17:44.887Z,32.50
2018-12-31T15:20:13.918Z,30.43
2018-12-31T15:22:42.947Z,30.53
2018-12-31T15:25:11.774Z,29.50
2018-12-31T15:27:40.750Z,30.93
2018-12-31T15:30:09.885Z,28.57
2018-12-31T15:32:38.842Z,28.03
2018-12-31T15:35:08.062Z,30.17
2018-12-31T15:37:37.120Z,30.13
2018-12-31T15:40:07.363Z,30.77
2018-12-31T15:42:36.435Z,32.00
2018-12-31T15:45:05.987Z,30.40
2018-12-31T15:47:35.101Z,28.83
2018-12-31T15:50:04.310Z,29.50
2018-12-31T15:52:33.282Z,30.13
2018-12-31T15:55:02.442Z,30.20
2018-12-31T15:57:31.337Z,28.90
2018-12-31T16:00:00.327Z,27.03
2018-12-31T16:02:29.208Z,29.17
2018-12-31T16:04:58.225Z,28.37
2018-12-31T16:07:27.150Z,29.13
2018-12-31T16:09:56.011Z,33.83
2018-12-31T16:12:24.835Z,32.23
2018-12-31T16:14:53.843Z,32.03
2018-12-31T16:17:22.743Z,29.57
2018-12-31T16:19:51.730Z,31.40
2018-12-31T16:22:20.574Z,30.73
2018-12-31T16:24:49.590Z,32.27
2018-12-31T16:27:18.619Z,31.53
2018-12-31T16:29:47.628Z,33.10
2018-12-31T16:32:16.532Z,31.60
2018-12-31T16:34:45.523Z,32.87
2018-12-31T16:37:14.447Z,33.63
2018-12-31T16:39:43.677Z,33.43
2018-12-31T16:42:13.623Z,36.40
2018-12-31T16:44:42.485Z,38.37
2018-12-31T16:47:11.534Z,32.20
2018-12-31T16:49:40.508Z,31.50
2018-12-31T16:52:09.531Z,31.50
2018-12-31T16:54:38.442Z,30.23
2018-12-31T16:57:07.561Z,31.30
2018-12-31T16:59:36.622Z,30.40
2018-12-31T17:02:05.713Z,37.47
2018-12-31T17:04:34.617Z,31.97
2018-12-31T17:07:03.577Z,30.57
2018-12-31T17:09:32.501Z,30.30
2018-12-31T17:12:01.445Z,29.97
2018-12-31T17:14:30.492Z,28.37
2018-12-31T17:16:59.345Z,29.63
2018-12-31T17:19:28.607Z,28.67
2018-12-31T17:21:57.561Z,30.77
2018-12-31T17:24:26.434Z,30.47
2018-12-31T17:26:55.374Z,27.97
2018-12-31T17:29:24.297Z,30.27
2018-12-31T17:31:53.457Z,30.90
2018-12-31T17:34:22.404Z,28.90
2018-12-31T17:36:51.355Z,30.67
2018-12-31T17:39:21.434Z,27.43
2018-12-31T17:41:50.827Z,27.80
2018-12-31T17:44:20.157Z,27.73
2018-12-31T17:46:49.334Z,27.20
2018-12-31T17:49:18.393Z,26.20
2018-12-31T17:51:47.531Z,27.50
2018-12-31T17:54:16.600Z,29.70
2018-12-31T17:56:45.906Z,28.13
2018-12-31T17:59:14.810Z,26.07
2018-12-31T18:01:43.869Z,27.97
2018-12-31T18:04:12.786Z,28.17
2018-12-31T18:06:41.877Z,30.23
2018-12-31T18:09:10.978Z,32.63
2018-12-31T18:11:39.802Z,29.33
2018-12-31T18:14:08.782Z,29.23
2018-12-31T18:16:37.923Z,26.37
2018-12-31T18:19:06.814Z,26.57
2018-12-31T18:21:35.985Z,26.27
2018-12-31T18:24:04.923Z,24.27
2018-12-31T18:26:34.027Z,32.07
2018-12-31T18:29:03.026Z,31.70
2018-12-31T18:31:32.230Z,30.93
2018-12-31T18:34:01.243Z,28.53
2018-12-31T18:36:30.222Z,30.07
2018-12-31T18:39:02.638Z,28.77
2018-12-31T18:41:32.121Z,28.70
2018-12-31T18:44:01.302Z,28.23
2018-12-31T18:46:31.706Z,27.27
2018-12-31T18:49:00.792Z,25.97
2018-12-31T18:51:29.815Z,26.97
2018-12-31T18:54:02.303Z,29.97
2018-12-31T18:56:31.589Z,31.80
2018-12-31T18:59:01.071Z,30.10
2018-12-31T19:01:30.351Z,30.17
2018-12-31T19:04:05.293Z,29.33
2018-12-31T19:06:34.518Z,27.97
2018-12-31T19:09:04.844Z,27.90
2018-12-31T19:11:34.285Z,29.07
2018-12-31T19:14:03.984Z,28.13
2018-12-31T19:16:33.642Z,26.90
2018-12-31T19:19:03.171Z,28.47
2018-12-31T19:21:32.459Z,26.73
2018-12-31T19:24:23.800Z,27.93
2018-12-31T19:26:53.566Z,29.60
2018-12-31T19:29:22.912Z,29.20
2018-12-31T19:31:52.314Z,28.97
2018-12-31T19:34:21.716Z,31.03
2018-12-31T19:36:54.526Z,30.77
2018-12-31T19:39:23.805Z,33.20
2018-12-31T19:42:08.610Z,33.80
2018-12-31T19:44:40.072Z,32.80
2018-12-31T19:47:10.877Z,33.40
2018-12-31T19:49:40.646Z,35.87
2018-12-31T19:52:10.405Z,36.13
2018-12-31T19:54:39.848Z,34.90
2018-12-31T19:57:09.290Z,32.13
2018-12-31T19:59:38.755Z,31.97
2018-12-31T20:02:07.857Z,32.10
2018-12-31T20:04:37.300Z,34.30
2018-12-31T20:07:06.786Z,38.00
2018-12-31T20:09:36.069Z,37.83
2018-12-31T20:12:05.301Z,34.00
2018-12-31T20:14:34.455Z,33.73
2018-12-31T20:17:06.719Z,32.43
2018-12-31T20:19:39.219Z,32.17
2018-12-31T20:22:08.346Z,31.03
2018-12-31T20:24:37.508Z,33.97
2018-12-31T20:27:06.837Z,34.30
2018-12-31T20:29:36.401Z,34.80
2018-12-31T20:32:05.859Z,37.03
2018-12-31T20:34:35.025Z,38.77
2018-12-31T20:37:08.505Z,40.80
2018-12-31T20:39:38.491Z,38.97
2018-12-31T20:42:08.606Z,37.30
2018-12-31T20:44:40.605Z,37.23
2018-12-31T20:47:10.203Z,35.57
2018-12-31T20:50:13.366Z,35.83
2018-12-31T20:53:22.712Z,42.10
2018-12-31T20:55:52.655Z,35.80
2018-12-31T20:58:33.359Z,39.73
2018-12-31T21:01:03.063Z,35.83
2018-12-31T21:03:32.267Z,38.57
2018-12-31T21:06:01.631Z,36.20
2018-12-31T21:08:30.932Z,37.73
2018-12-31T21:11:06.680Z,44.70
2018-12-31T21:13:37.419Z,37.10
2018-12-31T21:16:07.125Z,37.77
2018-12-31T21:18:37.348Z,36.87
2018-12-31T21:21:09.619Z,37.90
2018-12-31T21:23:45.214Z,37.53
2018-12-31T21:26:15.525Z,38.80
2018-12-31T21:28:45.023Z,35.87
2018-12-31T21:31:53.947Z,35.87
2018-12-31T21:34:23.291Z,35.03
2018-12-31T21:36:53.098Z,36.63
2018-12-31T21:39:23.898Z,38.27
2018-12-31T21:41:53.235Z,38.67
2018-12-31T21:44:22.666Z,35.40
2018-12-31T21:47:47.212Z,34.97
2018-12-31T21:50:26.895Z,36.03
2018-12-31T21:53:55.066Z,33.30
2018-12-31T21:56:43.904Z,33.23
2018-12-31T21:59:13.551Z,33.40
2018-12-31T22:01:46.991Z,31.97
2018-12-31T22:07:26.738Z,31.77
2018-12-31T22:16:42.671Z,30.93
2018-12-31T22:58:50.205Z,45.40
2018-12-31T23:43:53.660Z,79.07
2018-12-31T23:50:42.025Z,96.47
